Time;durP1;ratioP1;P1;durP2;ratioP2;P2;SDS_P1;SDS_P2;PMS_P1;PMS_P2;Temp;Humidity;BMP_temperature;BMP_pressure;BME280_temperature;BME280_humidity;BME280_pressure;Samples;Min_cycle;Max_cycle;Signal;HPM_P1;HPM_P2
2022/12/09 00:01:06;;;;;;;6.30;4.40;;;4.40;99.90;;;;;;5021320;28;20458;-70
2022/12/09 00:03:32;;;;;;;6.37;4.43;;;4.40;99.90;;;;;;5022076;28;20454;-69
2022/12/09 00:05:58;;;;;;;8.33;5.13;;;4.40;99.90;;;;;;5021219;28;20447;-70
2022/12/09 00:08:24;;;;;;;7.70;4.87;;;4.40;99.90;;;;;;5007265;28;20217;-70
2022/12/09 00:10:49;;;;;;;8.97;4.40;;;4.40;99.90;;;;;;5017714;28;20216;-70
2022/12/09 00:13:15;;;;;;;7.17;5.30;;;4.40;99.90;;;;;;5023643;28;20208;-68
2022/12/09 00:15:41;;;;;;;7.27;4.90;;;4.40;99.90;;;;;;5026588;28;20639;-70
2022/12/09 00:18:08;;;;;;;14.03;4.83;;;4.40;99.90;;;;;;5024240;28;20221;-70
2022/12/09 00:20:34;;;;;;;6.90;5.00;;;4.40;99.90;;;;;;5008809;28;20789;-70
2022/12/09 00:22:59;;;;;;;9.87;6.00;;;4.40;99.90;;;;;;5026136;28;20474;-70
2022/12/09 00:25:25;;;;;;;7.03;5.20;;;4.40;99.90;;;;;;5026082;28;20464;-70
2022/12/09 00:27:50;;;;;;;8.77;4.70;;;4.30;99.90;;;;;;5019625;28;20209;-69
2022/12/09 00:30:16;;;;;;;8.83;5.50;;;4.30;99.90;;;;;;5019867;28;20213;-70
2022/12/09 00:32:45;;;;;;;9.23;5.07;;;4.30;99.90;;;;;;5025873;28;20225;-70
2022/12/09 00:35:12;;;;;;;9.93;4.97;;;4.30;99.90;;;;;;5020222;28;20232;-70
2022/12/09 00:37:37;;;;;;;7.40;4.33;;;4.30;99.90;;;;;;5023007;28;20533;-70
2022/12/09 00:40:03;;;;;;;7.93;4.77;;;4.30;99.90;;;;;;5018011;28;20228;-72
2022/12/09 00:42:29;;;;;;;9.23;5.23;;;4.30;99.90;;;;;;5014013;28;20236;-69
2022/12/09 00:44:55;;;;;;;10.60;4.77;;;4.30;99.90;;;;;;5022437;28;20480;-70
2022/12/09 00:47:20;;;;;;;8.97;5.90;;;4.30;99.90;;;;;;5008724;28;20236;-69
2022/12/09 00:49:46;;;;;;;7.83;5.20;;;4.20;99.90;;;;;;4999140;28;20336;-70
2022/12/09 00:52:12;;;;;;;8.20;5.27;;;4.20;99.90;;;;;;5023965;28;20232;-70
2022/12/09 00:54:37;;;;;;;8.03;4.87;;;4.20;99.90;;;;;;5006799;28;20233;-70
2022/12/09 00:57:03;;;;;;;6.67;4.60;;;4.30;99.90;;;;;;5004723;28;20208;-69
2022/12/09 00:59:28;;;;;;;7.83;5.30;;;4.30;99.90;;;;;;5019640;28;20225;-70
2022/12/09 01:01:56;;;;;;;7.80;4.50;;;4.30;99.90;;;;;;5010430;28;20224;-70
2022/12/09 01:04:23;;;;;;;9.20;4.70;;;4.30;99.90;;;;;;5001669;28;21033;-71
2022/12/09 01:06:50;;;;;;;7.20;5.07;;;4.30;99.90;;;;;;5026661;28;20536;-70
2022/12/09 01:09:16;;;;;;;6.93;4.73;;;4.30;99.90;;;;;;5021117;28;20447;-71
2022/12/09 01:11:42;;;;;;;6.80;4.30;;;4.30;99.90;;;;;;5014283;28;20538;-71
2022/12/09 01:14:08;;;;;;;9.33;5.50;;;4.30;99.90;;;;;;5009886;28;21006;-70
2022/12/09 01:16:35;;;;;;;7.40;4.70;;;4.30;99.90;;;;;;5033894;28;20459;-71
2022/12/09 01:19:03;;;;;;;6.67;4.33;;;4.30;99.90;;;;;;5011194;28;20213;-70
2022/12/09 01:21:31;;;;;;;6.57;4.67;;;4.30;99.90;;;;;;5016764;28;20509;-70
2022/12/09 01:23:57;;;;;;;8.93;5.30;;;4.30;99.90;;;;;;5021637;28;20467;-71
2022/12/09 01:26:22;;;;;;;9.50;5.50;;;4.30;99.90;;;;;;5031176;28;20857;-71
2022/12/09 01:28:51;;;;;;;10.97;5.20;;;4.30;99.90;;;;;;5027726;28;20232;-70
2022/12/09 01:31:22;;;;;;;9.40;4.60;;;4.20;99.90;;;;;;5011647;28;20295;-70
2022/12/09 01:33:48;;;;;;;7.90;4.83;;;4.20;99.90;;;;;;5029883;28;20567;-70
2022/12/09 01:36:22;;;;;;;7.87;5.20;;;4.20;99.90;;;;;;5028891;28;20538;-70
2022/12/09 01:38:48;;;;;;;9.87;4.70;;;4.20;99.90;;;;;;5008358;28;20229;-70
2022/12/09 01:41:16;;;;;;;12.73;5.43;;;4.20;99.90;;;;;;5005919;28;20440;-70
2022/12/09 01:43:42;;;;;;;8.87;4.57;;;4.20;99.90;;;;;;5018009;28;20319;-70
2022/12/09 01:46:08;;;;;;;7.00;4.47;;;4.20;99.90;;;;;;5029444;28;20501;-70
2022/12/09 01:48:38;;;;;;;8.47;5.70;;;4.20;99.90;;;;;;5025324;28;20856;-70
2022/12/09 01:51:11;;;;;;;9.10;4.90;;;4.20;99.90;;;;;;4995327;28;21034;-70
2022/12/09 01:53:40;;;;;;;5.73;5.13;;;4.20;99.90;;;;;;5028591;28;20460;-70
2022/12/09 01:56:11;;;;;;;18.23;7.00;;;4.20;99.90;;;;;;5001288;28;20871;-70
2022/12/09 01:58:37;;;;;;;10.13;5.03;;;4.20;99.90;;;;;;5028146;28;20444;-70
2022/12/09 02:01:02;;;;;;;7.90;4.63;;;4.20;99.90;;;;;;4991717;28;20972;-70
2022/12/09 02:03:28;;;;;;;8.23;4.60;;;4.20;99.90;;;;;;5007967;28;20466;-70
2022/12/09 02:05:54;;;;;;;6.50;5.13;;;4.20;99.90;;;;;;5026327;28;20244;-70
2022/12/09 02:08:20;;;;;;;4.83;3.83;;;4.20;99.90;;;;;;5008239;28;20213;-70
2022/12/09 02:11:08;;;;;;;7.53;4.67;;;4.20;99.90;;;;;;4992221;28;20213;-70
2022/12/09 02:14:33;;;;;;;6.80;4.93;;;4.20;99.90;;;;;;5029899;28;20475;-70
2022/12/09 02:17:24;;;;;;;8.70;4.40;;;4.20;99.90;;;;;;5009579;28;20444;-70
2022/12/09 02:20:12;;;;;;;4.77;3.90;;;4.20;99.90;;;;;;5001306;28;20511;-70
2022/12/09 02:22:47;;;;;;;12.43;5.07;;;4.10;99.90;;;;;;5000593;28;20483;-70
2022/12/09 02:25:23;;;;;;;7.93;4.53;;;4.10;99.90;;;;;;5020702;28;20454;-71
2022/12/09 02:28:11;;;;;;;7.37;5.00;;;4.10;99.90;;;;;;5023700;28;20976;-70
2022/12/09 02:30:44;;;;;;;5.73;3.97;;;4.10;99.90;;;;;;5032104;28;20444;-70
2022/12/09 02:33:41;;;;;;;7.13;4.80;;;4.10;99.90;;;;;;5029021;28;20455;-70
2022/12/09 02:36:15;;;;;;;7.73;4.40;;;4.10;99.90;;;;;;5008599;28;21040;-70
2022/12/09 02:38:42;;;;;;;7.27;4.20;;;4.10;99.90;;;;;;5026616;28;20970;-70
2022/12/09 02:41:26;;;;;;;7.40;4.57;;;4.10;99.90;;;;;;5027355;28;20446;-70
2022/12/09 02:44:03;;;;;;;12.40;5.10;;;4.10;99.90;;;;;;5028175;28;20476;-70
2022/12/09 02:46:34;;;;;;;8.17;5.70;;;4.10;99.90;;;;;;5031078;28;20453;-69
2022/12/09 02:49:03;;;;;;;10.17;5.90;;;4.10;99.90;;;;;;5007781;28;20455;-70
2022/12/09 02:51:34;;;;;;;15.37;5.20;;;4.10;99.90;;;;;;5009435;28;20458;-68
2022/12/09 02:54:14;;;;;;;8.97;5.00;;;4.10;99.90;;;;;;5000893;28;21117;-69
2022/12/09 02:56:45;;;;;;;8.67;4.97;;;4.10;99.90;;;;;;5006909;28;20458;-70
2022/12/09 02:59:11;;;;;;;10.47;5.90;;;4.10;99.90;;;;;;5031888;28;20477;-70
2022/12/09 03:01:47;;;;;;;10.00;6.20;;;4.10;99.90;;;;;;5021270;28;20476;-70
2022/12/09 03:04:18;;;;;;;8.57;5.50;;;4.10;99.90;;;;;;5029323;28;20244;-70
2022/12/09 03:06:50;;;;;;;14.13;5.60;;;4.10;99.90;;;;;;5029661;28;20486;-70
2022/12/09 03:09:24;;;;;;;9.07;4.87;;;4.10;99.90;;;;;;5000324;28;20514;-70
2022/12/09 03:11:51;;;;;;;10.80;5.70;;;4.10;99.90;;;;;;5026465;28;20532;-70
2022/12/09 03:14:32;;;;;;;12.73;6.07;;;4.10;99.90;;;;;;5030577;28;20448;-69
2022/12/09 03:17:08;;;;;;;10.47;4.50;;;4.10;99.90;;;;;;5021711;28;20490;-69
2022/12/09 03:20:17;;;;;;;12.03;6.20;;;4.10;99.90;;;;;;5006575;28;20539;-70
2022/12/09 03:22:46;;;;;;;8.83;5.03;;;4.10;99.90;;;;;;4982077;28;20464;-70
2022/12/09 03:25:20;;;;;;;12.00;6.27;;;4.00;99.90;;;;;;5006678;28;20459;-70
2022/12/09 03:27:54;;;;;;;9.90;5.30;;;4.00;99.90;;;;;;5023231;28;20498;-70
2022/12/09 03:30:20;;;;;;;9.83;5.00;;;4.00;99.90;;;;;;5018507;28;20459;-70
2022/12/09 03:32:46;;;;;;;10.33;5.70;;;4.00;99.90;;;;;;5025818;28;20463;-70
2022/12/09 03:35:20;;;;;;;9.60;5.60;;;4.00;99.90;;;;;;5011330;28;20256;-69
2022/12/09 03:37:48;;;;;;;9.00;4.73;;;4.00;99.90;;;;;;5022039;28;20960;-70
2022/12/09 03:40:18;;;;;;;6.40;4.27;;;4.00;99.90;;;;;;5007973;28;20467;-70
2022/12/09 03:42:52;;;;;;;8.83;4.73;;;4.00;99.90;;;;;;5016421;28;20494;-70
2022/12/09 03:45:19;;;;;;;15.30;5.80;;;4.00;99.90;;;;;;5022779;28;20991;-70
2022/12/09 03:47:45;;;;;;;6.47;3.90;;;4.00;99.90;;;;;;5027320;28;20463;-70
2022/12/09 03:50:13;;;;;;;8.20;4.77;;;4.00;99.90;;;;;;5028176;28;20455;-70
2022/12/09 03:52:51;;;;;;;8.47;5.03;;;4.10;99.90;;;;;;5027286;28;20513;-69
2022/12/09 03:55:26;;;;;;;16.87;6.57;;;4.00;99.90;;;;;;5040914;28;20917;-70
2022/12/09 03:57:56;;;;;;;12.40;5.90;;;4.00;99.90;;;;;;5016371;28;20553;-69
2022/12/09 04:00:23;;;;;;;13.00;6.23;;;4.00;99.90;;;;;;5031000;28;20466;-70
2022/12/09 04:02:48;;;;;;;11.47;5.67;;;4.00;99.90;;;;;;5036086;28;20512;-70
2022/12/09 04:05:14;;;;;;;12.17;6.17;;;4.00;99.90;;;;;;5026834;28;20455;-70
2022/12/09 04:07:40;;;;;;;10.73;6.00;;;4.00;99.90;;;;;;5029821;28;20459;-69
2022/12/09 04:10:06;;;;;;;9.93;5.23;;;4.00;99.90;;;;;;5012228;28;20220;-71
2022/12/09 04:12:32;;;;;;;10.73;5.63;;;4.00;99.90;;;;;;5002921;28;20527;-70
2022/12/09 04:14:58;;;;;;;8.50;4.80;;;4.00;99.90;;;;;;5024834;28;20479;-70
2022/12/09 04:17:23;;;;;;;7.40;5.63;;;4.00;99.90;;;;;;5030460;28;20299;-68
2022/12/09 04:19:49;;;;;;;8.20;5.57;;;4.00;99.90;;;;;;5018014;28;20701;-69
2022/12/09 04:22:15;;;;;;;11.37;6.10;;;4.00;99.90;;;;;;5021242;28;20221;-70
2022/12/09 04:24:40;;;;;;;12.13;5.73;;;4.00;99.90;;;;;;5000094;28;20225;-69
2022/12/09 04:27:06;;;;;;;11.80;6.70;;;4.00;99.90;;;;;;5027511;28;20250;-70
2022/12/09 04:29:31;;;;;;;14.83;7.43;;;4.00;99.90;;;;;;5013929;28;20784;-71
2022/12/09 04:31:57;;;;;;;15.20;7.20;;;4.00;99.90;;;;;;5030568;28;20239;-70
2022/12/09 04:34:23;;;;;;;17.80;7.80;;;4.00;99.90;;;;;;5005155;28;20256;-71
2022/12/09 04:36:48;;;;;;;17.07;7.80;;;4.00;99.90;;;;;;5028826;28;20216;-70
2022/12/09 04:39:14;;;;;;;17.43;6.70;;;4.00;99.90;;;;;;5018420;28;20217;-70
2022/12/09 04:41:40;;;;;;;14.80;6.40;;;4.00;99.90;;;;;;5040241;28;20229;-70
2022/12/09 04:44:05;;;;;;;12.03;6.27;;;4.00;99.90;;;;;;5023323;28;20225;-70
2022/12/09 04:46:32;;;;;;;14.13;5.77;;;3.90;99.90;;;;;;5028985;28;20237;-70
2022/12/09 04:48:58;;;;;;;9.83;5.80;;;4.00;99.90;;;;;;5013356;28;20532;-70
2022/12/09 04:51:23;;;;;;;9.00;5.70;;;4.00;99.90;;;;;;5011041;28;20219;-71
2022/12/09 04:53:49;;;;;;;8.50;5.37;;;4.00;99.90;;;;;;5011579;28;20225;-70
2022/12/09 04:56:20;;;;;;;8.57;5.27;;;3.90;99.90;;;;;;5006769;28;20224;-70
2022/12/09 04:58:47;;;;;;;11.17;6.00;;;3.90;99.90;;;;;;5025344;28;20862;-70
2022/12/09 05:01:15;;;;;;;10.63;6.20;;;3.90;99.90;;;;;;5026718;28;20538;-70
2022/12/09 05:03:41;;;;;;;9.90;5.77;;;3.90;99.90;;;;;;5026929;28;20456;-69
2022/12/09 05:06:10;;;;;;;7.77;5.83;;;3.90;99.90;;;;;;5009162;28;20527;-69
2022/12/09 05:08:36;;;;;;;9.93;6.40;;;3.90;99.90;;;;;;5028408;28;20517;-69
2022/12/09 05:11:03;;;;;;;12.27;6.80;;;3.90;99.90;;;;;;5019719;28;20967;-70
2022/12/09 05:13:29;;;;;;;8.97;5.70;;;3.90;99.90;;;;;;5025292;28;20221;-70
2022/12/09 05:16:03;;;;;;;9.83;5.73;;;3.90;99.90;;;;;;5013084;28;20460;-69
2022/12/09 05:18:29;;;;;;;10.70;5.70;;;3.90;99.90;;;;;;5013692;28;20494;-70
2022/12/09 05:20:55;;;;;;;8.77;5.33;;;3.80;99.90;;;;;;5010498;28;20467;-71
2022/12/09 05:23:21;;;;;;;9.53;6.33;;;3.80;99.90;;;;;;5016112;28;20331;-69
2022/12/09 05:25:47;;;;;;;8.63;5.13;;;3.90;99.90;;;;;;5008848;28;20455;-70
2022/12/09 05:28:13;;;;;;;8.43;5.87;;;3.90;99.90;;;;;;5016434;28;20431;-70
2022/12/09 05:30:39;;;;;;;9.07;5.07;;;3.90;99.90;;;;;;5015188;28;20220;-70
2022/12/09 05:33:05;;;;;;;7.67;5.00;;;3.90;99.90;;;;;;5020123;28;20313;-70
2022/12/09 05:35:31;;;;;;;8.47;5.80;;;3.90;99.90;;;;;;4989707;28;20244;-69
2022/12/09 05:37:57;;;;;;;10.50;5.67;;;3.90;99.90;;;;;;5024043;28;20458;-69
2022/12/09 05:40:23;;;;;;;9.00;5.73;;;3.90;99.90;;;;;;5035352;28;20447;-70
2022/12/09 05:42:48;;;;;;;12.60;7.07;;;3.90;99.90;;;;;;5011820;28;20687;-70
2022/12/09 05:45:14;;;;;;;9.90;6.80;;;3.90;99.90;;;;;;5028697;28;20227;-70
2022/12/09 05:47:40;;;;;;;11.90;6.20;;;3.80;99.90;;;;;;5016202;28;20228;-69
2022/12/09 05:50:06;;;;;;;9.90;5.30;;;3.80;99.90;;;;;;5023519;28;20223;-70
2022/12/09 05:52:34;;;;;;;9.07;5.30;;;3.80;99.90;;;;;;5013154;28;20455;-69
2022/12/09 05:55:05;;;;;;;9.27;5.67;;;3.80;99.90;;;;;;5022548;28;20479;-70
2022/12/09 05:57:33;;;;;;;14.33;6.20;;;3.80;99.90;;;;;;5008413;28;20475;-71
2022/12/09 05:59:58;;;;;;;10.93;6.13;;;3.80;99.90;;;;;;5014107;28;20459;-70
2022/12/09 06:02:24;;;;;;;12.70;7.37;;;3.80;99.90;;;;;;5025573;28;20530;-70
2022/12/09 06:04:50;;;;;;;10.90;6.17;;;3.80;99.90;;;;;;5010333;28;20263;-70
2022/12/09 06:07:15;;;;;;;10.17;6.10;;;3.80;99.90;;;;;;5021064;28;20217;-70
2022/12/09 06:09:43;;;;;;;10.27;5.80;;;3.80;99.90;;;;;;5016018;28;20248;-70
2022/12/09 06:12:09;;;;;;;8.87;5.60;;;3.80;99.90;;;;;;5020492;28;20304;-67
2022/12/09 06:14:34;;;;;;;10.57;5.70;;;3.70;99.90;;;;;;4982551;28;20485;-68
2022/12/09 06:17:00;;;;;;;13.10;7.33;;;3.70;99.90;;;;;;5011060;28;20476;-70
2022/12/09 06:19:26;;;;;;;12.70;6.60;;;3.80;99.90;;;;;;5022938;28;20225;-69
2022/12/09 06:21:51;;;;;;;17.57;7.87;;;3.70;99.90;;;;;;5005954;28;20603;-69
2022/12/09 06:24:17;;;;;;;11.93;7.70;;;3.70;99.90;;;;;;5023012;28;20225;-70
2022/12/09 06:26:43;;;;;;;11.60;6.43;;;3.70;99.90;;;;;;5009410;28;20225;-70
2022/12/09 06:29:08;;;;;;;11.63;6.13;;;3.70;99.90;;;;;;5018495;28;20263;-70
2022/12/09 06:31:34;;;;;;;10.87;6.20;;;3.70;99.90;;;;;;5003133;28;20231;-70
2022/12/09 06:34:00;;;;;;;8.47;5.13;;;3.70;99.90;;;;;;5017435;28;20664;-70
2022/12/09 06:36:28;;;;;;;7.83;5.57;;;3.70;99.90;;;;;;5026986;28;20237;-70
2022/12/09 06:38:55;;;;;;;12.53;7.50;;;3.70;99.90;;;;;;5019221;28;20749;-71
2022/12/09 06:41:21;;;;;;;13.37;7.60;;;3.70;99.90;;;;;;5008029;28;20455;-70
2022/12/09 06:43:47;;;;;;;11.90;6.27;;;3.80;99.90;;;;;;5021487;28;20553;-70
2022/12/09 06:46:18;;;;;;;11.00;6.70;;;3.80;99.90;;;;;;5026177;28;20534;-70
2022/12/09 06:48:44;;;;;;;10.83;6.87;;;3.80;99.90;;;;;;5005173;28;20236;-70
2022/12/09 06:51:10;;;;;;;7.93;5.90;;;3.80;99.90;;;;;;5021579;28;20443;-70
2022/12/09 06:53:36;;;;;;;13.20;7.33;;;3.80;99.90;;;;;;5016365;28;20471;-70
2022/12/09 06:56:06;;;;;;;10.17;6.43;;;3.80;99.90;;;;;;5011896;28;20323;-69
2022/12/09 06:58:32;;;;;;;13.70;6.87;;;3.70;99.90;;;;;;5004445;28;20223;-70
2022/12/09 07:01:14;;;;;;;9.97;6.17;;;3.70;99.90;;;;;;5018038;28;20449;-71
2022/12/09 07:03:41;;;;;;;10.07;6.70;;;3.70;99.90;;;;;;4999436;28;20455;-70
2022/12/09 07:06:12;;;;;;;13.13;6.53;;;3.70;99.90;;;;;;5025595;28;20519;-70
2022/12/09 07:08:37;;;;;;;11.47;5.80;;;3.70;99.90;;;;;;5005870;28;20455;-70
2022/12/09 07:11:03;;;;;;;7.57;5.90;;;3.70;99.90;;;;;;5011892;28;20501;-70
2022/12/09 07:13:29;;;;;;;10.80;6.10;;;3.70;99.90;;;;;;5027861;28;20262;-70
2022/12/09 07:15:54;;;;;;;8.97;6.50;;;3.70;99.90;;;;;;5023245;28;20716;-70
2022/12/09 07:18:20;;;;;;;12.93;7.43;;;3.70;99.90;;;;;;4999022;28;20696;-70
2022/12/09 07:20:46;;;;;;;6.80;5.50;;;3.80;99.90;;;;;;5019658;28;20229;-70
2022/12/09 07:23:12;;;;;;;15.20;7.47;;;3.70;99.90;;;;;;5014929;28;20237;-70
2022/12/09 07:25:38;;;;;;;10.43;6.27;;;3.70;99.90;;;;;;5025807;28;20224;-70
2022/12/09 07:28:04;;;;;;;12.80;7.20;;;3.80;99.90;;;;;;4993286;28;20955;-70
2022/12/09 07:30:29;;;;;;;12.80;7.10;;;3.80;99.90;;;;;;5032233;28;20300;-70
2022/12/09 07:32:55;;;;;;;12.63;6.97;;;3.80;99.90;;;;;;5031272;28;20212;-70
2022/12/09 07:35:20;;;;;;;12.83;7.10;;;3.80;99.90;;;;;;5012389;28;20567;-69
2022/12/09 07:37:46;;;;;;;9.63;6.97;;;3.80;99.90;;;;;;5021698;28;20231;-70
2022/12/09 07:40:12;;;;;;;13.43;7.57;;;3.80;99.90;;;;;;5007570;28;20218;-70
2022/12/09 07:42:37;;;;;;;14.13;7.83;;;3.80;99.90;;;;;;5028878;28;20229;-69
2022/12/09 07:45:04;;;;;;;11.50;7.30;;;3.80;99.90;;;;;;5019586;28;20268;-71
2022/12/09 07:47:29;;;;;;;17.80;7.27;;;3.80;99.90;;;;;;5008202;28;20547;-70
2022/12/09 07:49:55;;;;;;;11.00;6.63;;;3.80;99.90;;;;;;5028420;28;20550;-72
2022/12/09 07:52:21;;;;;;;14.70;7.67;;;3.80;99.90;;;;;;5002111;28;20220;-70
2022/12/09 07:54:46;;;;;;;13.63;7.87;;;3.80;99.90;;;;;;5014812;28;20248;-70
2022/12/09 07:57:12;;;;;;;8.80;6.10;;;3.80;99.90;;;;;;5018205;28;20217;-70
2022/12/09 07:59:38;;;;;;;9.70;6.67;;;3.80;99.90;;;;;;5030118;28;20266;-70
2022/12/09 08:02:03;;;;;;;14.57;8.00;;;3.80;99.90;;;;;;5028340;28;20231;-70
2022/12/09 08:04:30;;;;;;;14.43;8.43;;;3.80;99.90;;;;;;5010813;28;20218;-70
2022/12/09 08:06:57;;;;;;;12.83;8.30;;;3.80;99.90;;;;;;5020176;28;20207;-70
2022/12/09 08:09:22;;;;;;;17.77;9.33;;;3.80;99.90;;;;;;5032953;28;20467;-70
2022/12/09 08:11:48;;;;;;;17.50;9.50;;;3.80;99.90;;;;;;5022697;28;20464;-70
2022/12/09 08:14:13;;;;;;;20.87;9.07;;;3.80;99.90;;;;;;5030137;28;20236;-70
2022/12/09 08:16:41;;;;;;;16.30;9.17;;;3.80;99.90;;;;;;5026195;28;20235;-70
2022/12/09 08:19:06;;;;;;;23.60;11.47;;;3.80;99.90;;;;;;5007563;28;20218;-71
2022/12/09 08:21:32;;;;;;;20.53;10.37;;;3.80;99.90;;;;;;5025804;28;20456;-68
2022/12/09 08:24:00;;;;;;;15.07;10.23;;;3.80;99.90;;;;;;5032416;28;20246;-70
2022/12/09 08:26:28;;;;;;;20.93;10.83;;;3.80;99.90;;;;;;5039772;28;20466;-70
2022/12/09 08:28:54;;;;;;;15.30;9.30;;;3.80;99.90;;;;;;5037418;28;20458;-70
2022/12/09 08:31:22;;;;;;;19.17;9.63;;;3.80;99.90;;;;;;5029662;28;20463;-70
2022/12/09 08:33:48;;;;;;;22.37;10.67;;;3.80;99.90;;;;;;5015837;28;20245;-70
2022/12/09 08:36:16;;;;;;;22.20;10.60;;;3.70;99.90;;;;;;5031343;28;20449;-69
2022/12/09 08:38:42;;;;;;;16.50;10.27;;;3.70;99.90;;;;;;5008727;28;20523;-70
2022/12/09 08:41:13;;;;;;;20.80;11.53;;;3.80;99.90;;;;;;5020902;28;20451;-70
2022/12/09 08:43:40;;;;;;;16.47;10.43;;;3.70;99.90;;;;;;5028850;28;20231;-71
2022/12/09 08:46:06;;;;;;;16.93;9.40;;;3.80;99.90;;;;;;5019886;28;20459;-70
2022/12/09 08:48:34;;;;;;;20.43;8.97;;;3.80;99.90;;;;;;5024880;28;20455;-72
2022/12/09 08:51:00;;;;;;;16.40;9.10;;;3.70;99.90;;;;;;5024176;28;20672;-70
2022/12/09 08:53:26;;;;;;;16.27;8.63;;;3.70;99.90;;;;;;5018421;28;20534;-71
2022/12/09 08:55:51;;;;;;;21.17;10.50;;;3.80;99.90;;;;;;5029695;28;20311;-70
2022/12/09 08:58:17;;;;;;;16.67;9.80;;;3.70;99.90;;;;;;5029388;28;20318;-70
2022/12/09 09:00:43;;;;;;;15.83;9.40;;;3.70;99.90;;;;;;5035318;28;20241;-70
2022/12/09 09:03:08;;;;;;;20.50;11.10;;;3.70;99.90;;;;;;5035571;28;20307;-70
2022/12/09 09:05:34;;;;;;;16.80;11.30;;;3.70;99.90;;;;;;5010137;28;20794;-70
2022/12/09 09:08:00;;;;;;;24.10;12.63;;;3.70;99.90;;;;;;5017720;28;20312;-69
2022/12/09 09:10:25;;;;;;;18.10;11.07;;;3.80;99.90;;;;;;5015202;28;20307;-70
2022/12/09 09:12:51;;;;;;;25.80;12.47;;;3.80;99.90;;;;;;5032185;28;20212;-70
2022/12/09 09:15:17;;;;;;;22.63;13.87;;;3.80;99.90;;;;;;5012438;28;20251;-70
2022/12/09 09:17:42;;;;;;;23.40;11.60;;;3.80;99.90;;;;;;5029443;28;20703;-70
2022/12/09 09:20:08;;;;;;;20.53;11.30;;;3.80;99.90;;;;;;5038646;28;20255;-70
2022/12/09 09:22:34;;;;;;;20.47;11.47;;;3.80;99.90;;;;;;5015670;28;20224;-69
2022/12/09 09:24:59;;;;;;;22.00;13.27;;;3.80;99.90;;;;;;5024956;28;20307;-70
2022/12/09 09:27:25;;;;;;;17.87;11.27;;;3.80;99.90;;;;;;5026940;28;20240;-70
2022/12/09 09:29:51;;;;;;;21.47;10.53;;;3.90;99.90;;;;;;5017984;28;20248;-70
2022/12/09 09:32:16;;;;;;;18.80;11.33;;;3.80;99.90;;;;;;5013685;28;20231;-70
2022/12/09 09:34:44;;;;;;;18.43;11.07;;;3.80;99.90;;;;;;5015148;28;20251;-69
2022/12/09 09:37:10;;;;;;;22.73;12.37;;;3.80;99.90;;;;;;5034325;28;20215;-70
2022/12/09 09:39:35;;;;;;;21.50;12.37;;;3.90;99.90;;;;;;5023874;28;20551;-70
2022/12/09 09:42:04;;;;;;;18.17;11.77;;;3.80;99.90;;;;;;5027744;28;20276;-70
2022/12/09 09:44:37;;;;;;;14.80;9.40;;;3.90;99.90;;;;;;5034300;28;20239;-70
2022/12/09 09:47:29;;;;;;;19.20;11.67;;;3.80;99.90;;;;;;5009487;28;20460;-70
2022/12/09 09:50:17;;;;;;;15.70;9.23;;;3.90;99.90;;;;;;5022924;28;20490;-71
2022/12/09 09:52:43;;;;;;;18.83;10.50;;;3.90;99.90;;;;;;5027336;28;20521;-69
2022/12/09 09:55:17;;;;;;;21.07;12.33;;;3.90;99.90;;;;;;5023719;28;20490;-69
2022/12/09 09:57:54;;;;;;;20.60;11.13;;;3.90;99.90;;;;;;5023273;28;20725;-70
2022/12/09 10:00:29;;;;;;;17.23;9.43;;;4.00;99.90;;;;;;5016977;28;20454;-69
2022/12/09 10:03:13;;;;;;;19.70;10.90;;;4.00;99.90;;;;;;5015128;28;20475;-70
2022/12/09 10:05:41;;;;;;;18.27;10.30;;;4.00;99.90;;;;;;5024478;28;20469;-70
2022/12/09 10:08:25;;;;;;;23.63;11.93;;;4.10;99.90;;;;;;5034180;28;20521;-70
2022/12/09 10:11:28;;;;;;;21.70;11.23;;;4.10;99.90;;;;;;5028036;28;20451;-70
2022/12/09 10:14:00;;;;;;;18.47;11.73;;;4.00;99.90;;;;;;5032547;28;20451;-70
2022/12/09 10:16:40;;;;;;;24.30;13.20;;;4.10;99.90;;;;;;5017106;28;20467;-70
2022/12/09 10:19:36;;;;;;;45.20;23.17;;;4.10;99.90;;;;;;5016024;28;20459;-70
2022/12/09 10:22:13;;;;;;;44.77;21.77;;;4.10;99.90;;;;;;5028823;28;20452;-70
2022/12/09 10:24:46;;;;;;;33.60;17.97;;;4.00;99.90;;;;;;5023595;28;20455;-70
2022/12/09 10:27:20;;;;;;;39.83;21.27;;;3.90;99.90;;;;;;5025361;28;20888;-70
2022/12/09 10:30:01;;;;;;;41.00;19.87;;;3.80;99.90;;;;;;5013450;28;20547;-69
2022/12/09 10:32:33;;;;;;;23.97;14.07;;;3.80;99.90;;;;;;5017649;28;20464;-70
2022/12/09 10:34:59;;;;;;;25.73;13.47;;;3.80;99.90;;;;;;5012823;28;20471;-70
2022/12/09 10:37:31;;;;;;;23.40;14.80;;;3.80;99.90;;;;;;5018595;28;20467;-68
2022/12/09 10:40:08;;;;;;;24.33;14.27;;;3.90;99.90;;;;;;5003957;28;20462;-70
2022/12/09 10:45:28;;;;;;;25.67;13.23;;;3.90;99.90;;;;;;5024803;28;20495;-71
2022/12/09 10:47:54;;;;;;;24.87;11.67;;;4.00;99.90;;;;;;5019899;28;20542;-71
2022/12/09 10:50:34;;;;;;;20.97;11.80;;;3.90;99.90;;;;;;5011321;28;20982;-71
2022/12/09 10:53:06;;;;;;;20.57;10.73;;;4.00;99.90;;;;;;5011644;28;20234;-70
2022/12/09 10:55:39;;;;;;;28.83;13.40;;;3.90;99.90;;;;;;5030047;28;20958;-71
2022/12/09 10:58:15;;;;;;;20.97;10.37;;;4.00;99.90;;;;;;5001162;28;20503;-70
2022/12/09 11:00:41;;;;;;;25.43;12.63;;;4.00;99.90;;;;;;5020481;28;20467;-70
2022/12/09 11:03:34;;;;;;;28.73;16.17;;;4.00;99.90;;;;;;5021825;28;20482;-70
2022/12/09 11:06:22;;;;;;;54.53;29.87;;;4.00;99.90;;;;;;5026298;28;20485;-70
2022/12/09 11:08:54;;;;;;;67.43;38.67;;;4.00;99.90;;;;;;5021569;28;20866;-69
2022/12/09 11:11:41;;;;;;;79.27;42.67;;;4.00;99.90;;;;;;5018477;28;20455;-71
2022/12/09 11:14:21;;;;;;;53.80;33.00;;;4.00;99.90;;;;;;5024192;28;20613;-70
2022/12/09 11:16:56;;;;;;;42.57;25.83;;;4.00;99.90;;;;;;5031754;28;20448;-70
2022/12/09 11:19:31;;;;;;;37.90;22.80;;;4.00;99.90;;;;;;5032987;28;20455;-70
2022/12/09 11:22:39;;;;;;;30.57;17.50;;;4.10;99.90;;;;;;5028875;28;20452;-68
2022/12/09 11:25:11;;;;;;;24.90;13.67;;;4.10;99.90;;;;;;5018794;28;20987;-71
2022/12/09 11:27:59;;;;;;;22.70;15.03;;;4.00;99.90;;;;;;5029467;28;20439;-70
2022/12/09 11:30:33;;;;;;;27.47;14.00;;;4.00;99.90;;;;;;5001370;28;20452;-70
2022/12/09 11:33:15;;;;;;;22.10;12.93;;;4.00;99.90;;;;;;5018700;28;20508;-70
2022/12/09 11:35:44;;;;;;;17.57;11.00;;;4.00;99.90;;;;;;5005596;28;20479;-70
2022/12/09 11:38:37;;;;;;;14.97;10.10;;;4.00;99.90;;;;;;5021285;28;20451;-70
2022/12/09 11:42:12;;;;;;;17.13;8.73;;;4.00;99.90;;;;;;5021628;28;20515;-69
2022/12/09 11:44:02;;;;;;;17.40;10.50;;;4.10;99.90;;;;;;5020232;28;20688;-70
2022/12/09 11:46:30;;;;;;;16.67;9.90;;;4.10;99.90;;;;;;5023528;28;20474;-70
2022/12/09 11:49:04;;;;;;;22.40;12.90;;;4.10;99.90;;;;;;5004647;28;20987;-71
2022/12/09 11:51:37;;;;;;;22.00;11.70;;;4.10;99.90;;;;;;4997113;28;20866;-70
2022/12/09 11:54:26;;;;;;;20.77;10.87;;;4.10;99.90;;;;;;5018070;28;20560;-69
2022/12/09 11:56:53;;;;;;;17.03;11.47;;;4.00;99.90;;;;;;5007782;28;20527;-70
2022/12/09 11:59:22;;;;;;;15.83;10.43;;;4.10;99.90;;;;;;5005245;28;20951;-70
2022/12/09 12:02:09;;;;;;;14.10;8.00;;;4.10;99.90;;;;;;5029150;28;20455;-70
2022/12/09 12:04:43;;;;;;;12.90;7.20;;;4.10;99.90;;;;;;5033059;28;20463;-70
2022/12/09 12:07:45;;;;;;;12.03;7.53;;;4.00;99.90;;;;;;5023632;28;20455;-70
2022/12/09 12:10:23;;;;;;;13.67;7.30;;;4.00;99.90;;;;;;5004984;28;20538;-70
2022/12/09 12:13:02;;;;;;;10.57;6.57;;;4.00;99.90;;;;;;5027423;28;20546;-70
2022/12/09 12:16:00;;;;;;;13.43;6.47;;;4.00;99.90;;;;;;5023588;28;20476;-71
2022/12/09 12:18:29;;;;;;;13.13;6.40;;;4.00;99.90;;;;;;5020333;28;20467;-70
2022/12/09 12:21:15;;;;;;;13.03;6.70;;;4.00;99.90;;;;;;5024418;28;21154;-70
2022/12/09 12:24:00;;;;;;;10.03;6.20;;;4.00;99.90;;;;;;5023932;28;20460;-70
2022/12/09 12:26:33;;;;;;;14.67;6.60;;;4.00;99.90;;;;;;5016711;28;20597;-69
2022/12/09 12:29:10;;;;;;;12.30;7.20;;;4.10;99.90;;;;;;5018342;28;20451;-70
2022/12/09 12:32:21;;;;;;;15.50;8.47;;;4.10;99.90;;;;;;5041978;28;20580;-71
2022/12/09 12:35:15;;;;;;;18.20;9.20;;;4.00;99.90;;;;;;5008773;28;20503;-70
2022/12/09 12:38:05;;;;;;;21.40;11.33;;;4.10;99.90;;;;;;5021256;28;20522;-70
2022/12/09 12:40:35;;;;;;;22.87;15.47;;;4.10;99.90;;;;;;5018527;28;20453;-70
2022/12/09 12:46:27;;;;;;;38.20;22.10;;;4.20;99.90;;;;;;5030112;28;20529;-70
2022/12/09 12:49:37;;;;;;;28.67;20.60;;;4.20;99.90;;;;;;5021190;28;20493;-70
2022/12/09 12:52:32;;;;;;;25.40;20.07;;;4.30;99.90;;;;;;5022447;28;20466;-70
2022/12/09 12:55:17;;;;;;;26.00;14.77;;;4.30;99.90;;;;;;5016135;28;20520;-70
2022/12/09 12:57:51;;;;;;;22.23;11.40;;;4.40;99.90;;;;;;5010491;28;20547;-69
2022/12/09 13:00:20;;;;;;;17.73;10.10;;;4.40;99.90;;;;;;5039576;28;20465;-71
2022/12/09 13:03:19;;;;;;;14.40;8.90;;;4.30;99.90;;;;;;5023297;28;20480;-70
2022/12/09 13:05:48;;;;;;;12.07;7.90;;;4.30;99.90;;;;;;5022768;28;20462;-69
2022/12/09 13:08:42;;;;;;;13.70;7.93;;;4.30;99.90;;;;;;5026306;28;20831;-71
2022/12/09 13:11:14;;;;;;;10.40;6.17;;;4.30;99.90;;;;;;5041199;28;20456;-72
2022/12/09 13:13:53;;;;;;;16.97;6.40;;;4.30;99.90;;;;;;5042748;28;20467;-69